Impacts TAF Board INFO
FOR SITUATIONAL AWARENESS. NOT TO BE USED FOR FLIGHT PLANNING PURPOSES.
IDs:

KSTL - St Louis/Lambert Int, MO, US

Issued at 1725 UTC 16 Jan 2018
Updated at 1921 UTC 16 Jan 2018
Potential Impact None Slight Moderate High
Time1851Z 16/20Z 16/21Z 16/22Z 16/23Z 17/00Z 17/01Z 17/02Z 17/03Z 17/04Z 17/05Z 17/06Z 17/07Z 17/08Z>>
Type OBS PRVL PRVL PRVL PRVL PRVL PRVL PRVL PRVL PRVL PRVL PRVL PRVL PRVL
VIS 10 >6 >6 >6 >6 >6 >6 >6 >6 >6 >6 >6 >6 >6
CIG -- 40 40 40 40 40 40 40 40 40 -- -- -- --
Cover FEW BKN BKN BKN BKN BKN BKN BKN BKN BKN SCT SCT SCT SCT
FltCat VFR VFR VFR VFR VFR VFR VFR VFR VFR VFR VFR VFR VFR VFR
WX -- -- -- -- -- -- -- -- -- -- -- -- -- --
WDir 280 290 290 290 290 290 290 290 290 290 300 300 300 300
WSpd 13 9 9 9 9 9 9 9 9 9 6 6 6 6
WGst -- -- -- -- -- -- -- -- -- -- -- -- -- --

Raw TAF
KSTL 161725Z 1618/1724 29009KT P6SM BKN040
  FM170500 30006KT P6SM SCT050
  FM172300 23005KT P6SM FEW250


Raw METAR
KSTL 161851Z 28013KT 10SM FEW020 FEW040 FEW250 M13/M18 A3064 RMK AO2 SLP402 T11331183
KSTL 161751Z 30011G19KT 10SM FEW022 FEW250 M14/M19 A3066 RMK AO2 SLP408 4/001 60000 T11391189 11139 21183 58002
KSTL 161651Z 30011KT 10SM FEW022 FEW250 M15/M20 A3067 RMK AO2 SNE05 SLP412 P0000 T11501200

METAR Board
Radar Display
Forecast Discussion

FOR SITUATIONAL AWARENESS. NOT TO BE USED FOR FLIGHT PLANNING PURPOSES.